Time;durP1;ratioP1;P1;durP2;ratioP2;P2;SDS_P1;SDS_P2;PMS_P1;PMS_P2;Temp;Humidity;BMP_temperature;BMP_pressure;BME280_temperature;BME280_humidity;BME280_pressure;Samples;Min_cycle;Max_cycle;Signal;HPM_P1;HPM_P2
2023/11/13 00:00:14;;;;;;;75.97;23.52;;;5.60;100.00;;;;;;4944841;28;20063;-70
2023/11/13 00:02:41;;;;;;;71.90;23.52;;;5.60;100.00;;;;;;4948144;28;20090;-70
2023/11/13 00:05:08;;;;;;;67.32;22.08;;;5.60;100.00;;;;;;4945896;28;20260;-70
2023/11/13 00:07:35;;;;;;;75.88;24.52;;;5.60;100.00;;;;;;4935038;28;20057;-71
2023/11/13 00:10:03;;;;;;;78.00;24.98;;;5.60;100.00;;;;;;4926064;29;20121;-71
2023/11/13 00:12:30;;;;;;;74.57;23.50;;;5.60;100.00;;;;;;4927214;28;20057;-70
2023/11/13 00:14:57;;;;;;;77.35;24.25;;;5.60;100.00;;;;;;4934166;29;20115;-71
2023/11/13 00:17:24;;;;;;;78.03;22.70;;;5.60;100.00;;;;;;4924203;28;20688;-71
2023/11/13 00:19:51;;;;;;;66.97;23.30;;;5.60;100.00;;;;;;4917476;29;20054;-70
2023/11/13 00:22:18;;;;;;;70.80;24.13;;;5.60;100.00;;;;;;4944682;29;20115;-70
2023/11/13 00:24:45;;;;;;;73.55;23.73;;;5.60;100.00;;;;;;4941771;29;20102;-71
2023/11/13 00:27:11;;;;;;;70.53;23.20;;;5.60;100.00;;;;;;4944494;28;20114;-71
2023/11/13 00:29:38;;;;;;;75.60;23.45;;;5.60;100.00;;;;;;4941865;28;20114;-71
2023/11/13 00:32:05;;;;;;;73.82;22.85;;;5.60;100.00;;;;;;4939874;28;20106;-71
2023/11/13 00:34:32;;;;;;;74.57;25.13;;;5.60;100.00;;;;;;4925318;29;20058;-70
2023/11/13 00:36:59;;;;;;;76.95;24.67;;;5.60;100.00;;;;;;4939116;28;20052;-70
2023/11/13 00:39:27;;;;;;;72.65;23.30;;;5.60;100.00;;;;;;4943857;28;20102;-70
2023/11/13 00:41:54;;;;;;;75.03;23.48;;;5.60;100.00;;;;;;4919006;28;20047;-70
2023/11/13 00:44:21;;;;;;;74.10;24.02;;;5.60;100.00;;;;;;4942564;28;20101;-71
2023/11/13 00:46:49;;;;;;;94.28;25.10;;;5.60;100.00;;;;;;4938753;28;20055;-71
2023/11/13 00:49:16;;;;;;;74.28;23.48;;;5.60;100.00;;;;;;4922817;29;20078;-71
2023/11/13 00:51:43;;;;;;;77.32;23.05;;;5.60;100.00;;;;;;4941716;28;20048;-70
2023/11/13 00:54:10;;;;;;;74.32;25.63;;;5.60;100.00;;;;;;4919426;28;20058;-71
2023/11/13 00:56:37;;;;;;;78.57;23.92;;;5.60;100.00;;;;;;4938856;28;20047;-71
2023/11/13 00:59:04;;;;;;;79.50;24.02;;;5.60;100.00;;;;;;4942786;28;21017;-70
2023/11/13 01:01:31;;;;;;;75.38;23.67;;;5.60;100.00;;;;;;4935790;28;20107;-71
2023/11/13 01:03:58;;;;;;;71.28;24.10;;;5.60;100.00;;;;;;4923565;29;20791;-71
2023/11/13 01:06:26;;;;;;;79.70;23.85;;;5.60;100.00;;;;;;4953302;28;20053;-71
2023/11/13 01:08:53;;;;;;;85.63;25.27;;;5.60;100.00;;;;;;4926757;29;20851;-71
2023/11/13 01:11:20;;;;;;;74.75;22.40;;;5.60;100.00;;;;;;4947249;28;20059;-71
2023/11/13 01:13:47;;;;;;;79.43;26.13;;;5.60;100.00;;;;;;4947941;28;20638;-70
2023/11/13 01:16:14;;;;;;;78.22;25.95;;;5.60;100.00;;;;;;4950345;28;20842;-71
2023/11/13 01:18:41;;;;;;;88.70;25.20;;;5.60;100.00;;;;;;4928893;29;20051;-70
2023/11/13 01:21:08;;;;;;;81.95;23.85;;;5.60;100.00;;;;;;4948079;28;20122;-71
2023/11/13 01:23:35;;;;;;;79.82;24.77;;;5.60;100.00;;;;;;4946270;28;20098;-71
2023/11/13 01:26:02;;;;;;;84.03;25.48;;;5.50;100.00;;;;;;4948403;28;20444;-70
2023/11/13 01:28:29;;;;;;;79.55;26.55;;;5.50;100.00;;;;;;4924584;28;20066;-71
2023/11/13 01:30:56;;;;;;;79.18;25.90;;;5.60;100.00;;;;;;4944796;28;20141;-70
2023/11/13 01:33:23;;;;;;;86.05;25.63;;;5.60;100.00;;;;;;4936569;29;20122;-70
2023/11/13 01:35:50;;;;;;;83.32;25.35;;;5.60;100.00;;;;;;4948433;28;20075;-70
2023/11/13 01:38:17;;;;;;;86.32;27.17;;;5.50;100.00;;;;;;4948338;28;20086;-70
2023/11/13 01:40:46;;;;;;;81.15;25.48;;;5.50;100.00;;;;;;4947867;28;20440;-70
2023/11/13 01:43:22;;;;;;;77.25;24.40;;;5.50;100.00;;;;;;4929384;29;20051;-70
2023/11/13 01:45:53;;;;;;;89.47;26.55;;;5.60;100.00;;;;;;4946800;28;20055;-70
2023/11/13 01:48:22;;;;;;;95.78;28.30;;;5.50;100.00;;;;;;4947938;28;20051;-70
2023/11/13 01:50:50;;;;;;;85.38;26.00;;;5.50;100.00;;;;;;4942415;28;20086;-70
2023/11/13 01:53:22;;;;;;;89.85;25.38;;;5.50;100.00;;;;;;4946692;28;20500;-70
2023/11/13 01:55:51;;;;;;;100.65;27.13;;;5.60;100.00;;;;;;4928702;29;20575;-71
2023/11/13 01:58:18;;;;;;;95.38;25.48;;;5.50;100.00;;;;;;4947127;28;20043;-71
2023/11/13 02:00:46;;;;;;;79.20;26.95;;;5.50;100.00;;;;;;4929210;29;20043;-70
2023/11/13 02:03:16;;;;;;;93.95;26.35;;;5.60;100.00;;;;;;4943715;28;20051;-70
2023/11/13 02:05:45;;;;;;;95.32;28.05;;;5.60;100.00;;;;;;4929426;28;20105;-71
2023/11/13 02:08:12;;;;;;;98.90;29.85;;;5.60;100.00;;;;;;4931629;28;20055;-71
2023/11/13 02:10:39;;;;;;;102.75;28.33;;;5.60;100.00;;;;;;4945463;28;20476;-70
2023/11/13 02:13:10;;;;;;;101.22;27.02;;;5.60;100.00;;;;;;4944989;28;20079;-70
2023/11/13 02:15:37;;;;;;;100.70;28.42;;;5.60;100.00;;;;;;4950239;28;20109;-70
2023/11/13 02:18:05;;;;;;;92.35;27.00;;;5.60;100.00;;;;;;4945747;28;20166;-70
2023/11/13 02:20:33;;;;;;;116.47;32.08;;;5.60;100.00;;;;;;4930763;28;20082;-70
2023/11/13 02:23:00;;;;;;;85.93;28.23;;;5.60;100.00;;;;;;4940772;28;20632;-70
2023/11/13 02:25:27;;;;;;;116.28;29.48;;;5.70;100.00;;;;;;4946829;28;20103;-70
2023/11/13 02:27:57;;;;;;;116.13;30.52;;;5.70;100.00;;;;;;4943131;28;20135;-71
2023/11/13 02:30:24;;;;;;;96.65;29.45;;;5.70;100.00;;;;;;4922034;28;20153;-71
2023/11/13 02:32:51;;;;;;;106.15;30.25;;;5.70;100.00;;;;;;4943901;28;20079;-70
2023/11/13 02:35:18;;;;;;;93.32;29.58;;;5.60;100.00;;;;;;4929878;29;20082;-70
2023/11/13 02:37:45;;;;;;;105.47;28.08;;;5.70;100.00;;;;;;4929049;29;20386;-70
2023/11/13 02:40:13;;;;;;;99.70;28.40;;;5.70;100.00;;;;;;4920751;29;20131;-71
2023/11/13 02:42:41;;;;;;;99.55;28.75;;;5.70;100.00;;;;;;4943747;28;20067;-70
2023/11/13 02:45:09;;;;;;;98.82;30.20;;;5.70;100.00;;;;;;4947829;28;20124;-71
2023/11/13 02:47:36;;;;;;;101.57;30.45;;;5.70;100.00;;;;;;4945062;28;20133;-70
2023/11/13 02:50:05;;;;;;;100.55;30.45;;;5.70;100.00;;;;;;4942506;28;20083;-70
2023/11/13 02:52:32;;;;;;;98.97;28.70;;;5.70;100.00;;;;;;4925386;28;20063;-70
2023/11/13 02:54:59;;;;;;;97.13;29.85;;;5.70;100.00;;;;;;4946784;28;20043;-70
2023/11/13 02:57:26;;;;;;;115.88;28.63;;;5.70;100.00;;;;;;4944968;28;20242;-70
2023/11/13 02:59:53;;;;;;;112.55;29.83;;;5.70;100.00;;;;;;4946371;28;20074;-70
2023/11/13 03:02:20;;;;;;;103.22;29.10;;;5.70;100.00;;;;;;4925658;28;20080;-70
2023/11/13 03:04:47;;;;;;;106.13;29.15;;;5.60;100.00;;;;;;4946987;28;20058;-70
2023/11/13 03:07:14;;;;;;;110.93;30.73;;;5.70;100.00;;;;;;4918290;28;20110;-70
2023/11/13 03:09:41;;;;;;;112.25;28.77;;;5.60;100.00;;;;;;4944222;28;20400;-70
2023/11/13 03:12:08;;;;;;;92.70;28.50;;;5.60;100.00;;;;;;4943672;28;20781;-70
2023/11/13 03:14:35;;;;;;;101.72;28.42;;;5.60;100.00;;;;;;4940518;28;20047;-70
2023/11/13 03:17:02;;;;;;;96.10;30.50;;;5.50;100.00;;;;;;4942773;28;20544;-70
2023/11/13 03:19:28;;;;;;;115.90;31.70;;;5.50;100.00;;;;;;4934701;29;20847;-70
2023/11/13 03:21:55;;;;;;;107.13;28.98;;;5.40;100.00;;;;;;4955776;23;20127;-70
2023/11/13 03:24:22;;;;;;;101.15;29.15;;;5.40;100.00;;;;;;4935519;28;20066;-70
2023/11/13 03:26:49;;;;;;;92.18;28.17;;;5.40;100.00;;;;;;4935364;28;20129;-70
2023/11/13 03:29:16;;;;;;;105.93;31.17;;;5.40;100.00;;;;;;4935912;29;20059;-70
2023/11/13 03:31:43;;;;;;;90.45;29.42;;;5.40;100.00;;;;;;4936855;29;20052;-70
2023/11/13 03:34:10;;;;;;;102.78;29.48;;;5.40;100.00;;;;;;4933831;29;20055;-70
2023/11/13 03:36:37;;;;;;;104.55;29.98;;;5.40;100.00;;;;;;4933181;28;20062;-70
2023/11/13 03:39:04;;;;;;;102.32;27.88;;;5.50;100.00;;;;;;4932178;29;20051;-70
2023/11/13 03:41:32;;;;;;;101.22;30.58;;;5.50;100.00;;;;;;4932785;29;20158;-70
2023/11/13 03:44:00;;;;;;;94.63;28.48;;;5.40;100.00;;;;;;4927443;28;20826;-70
2023/11/13 03:46:27;;;;;;;85.65;28.45;;;5.50;100.00;;;;;;4934062;28;20043;-70
2023/11/13 03:48:54;;;;;;;97.35;28.60;;;5.40;100.00;;;;;;4930076;28;20547;-70
2023/11/13 03:51:25;;;;;;;96.65;28.90;;;5.50;100.00;;;;;;4931094;28;20054;-70
2023/11/13 03:53:53;;;;;;;101.75;28.80;;;5.40;100.00;;;;;;4935883;29;20055;-70
2023/11/13 03:56:21;;;;;;;98.25;28.63;;;5.40;100.00;;;;;;4942113;28;20535;-70
2023/11/13 03:58:48;;;;;;;100.15;28.80;;;5.50;100.00;;;;;;4941580;28;20082;-70
2023/11/13 04:01:17;;;;;;;91.32;28.48;;;5.40;100.00;;;;;;4936353;28;20169;-70
2023/11/13 04:03:44;;;;;;;95.80;28.73;;;5.40;100.00;;;;;;4929282;29;20054;-70
2023/11/13 04:06:11;;;;;;;107.95;28.73;;;5.40;100.00;;;;;;4935460;28;20066;-70
2023/11/13 04:08:38;;;;;;;101.35;27.63;;;5.40;100.00;;;;;;4932356;28;20059;-70
2023/11/13 04:11:05;;;;;;;96.30;28.58;;;5.40;100.00;;;;;;4935490;28;20660;-70
2023/11/13 04:13:36;;;;;;;92.00;28.17;;;5.40;100.00;;;;;;4935598;28;20058;-70
2023/11/13 04:16:06;;;;;;;101.20;28.02;;;5.40;100.00;;;;;;4937023;28;20079;-70
2023/11/13 04:18:33;;;;;;;100.25;29.27;;;5.40;100.00;;;;;;4939130;28;20067;-70
2023/11/13 04:21:00;;;;;;;91.72;28.65;;;5.30;100.00;;;;;;4940645;28;20074;-70
2023/11/13 04:23:27;;;;;;;94.82;28.60;;;5.30;100.00;;;;;;4934974;28;20508;-70
2023/11/13 04:25:54;;;;;;;90.20;26.52;;;5.30;100.00;;;;;;4940982;29;20059;-70
2023/11/13 04:28:22;;;;;;;92.65;27.92;;;5.20;100.00;;;;;;4931041;28;20716;-70
2023/11/13 04:30:49;;;;;;;89.68;27.77;;;5.20;100.00;;;;;;4941754;28;20143;-70
2023/11/13 04:33:16;;;;;;;94.45;28.50;;;5.20;100.00;;;;;;4936985;28;20055;-70
2023/11/13 04:35:43;;;;;;;113.72;28.77;;;5.20;100.00;;;;;;4928764;28;20047;-70
2023/11/13 04:38:10;;;;;;;104.90;30.00;;;5.20;100.00;;;;;;4941244;28;20138;-70
2023/11/13 04:40:37;;;;;;;98.70;29.40;;;5.20;100.00;;;;;;4941434;28;20440;-70
2023/11/13 04:43:04;;;;;;;94.80;27.92;;;5.20;100.00;;;;;;4934660;29;20194;-70
2023/11/13 04:45:34;;;;;;;99.13;29.27;;;5.20;100.00;;;;;;4932186;28;20095;-70
2023/11/13 04:48:02;;;;;;;100.80;27.05;;;5.20;100.00;;;;;;4937582;29;20134;-70
2023/11/13 04:50:29;;;;;;;97.85;26.38;;;5.20;100.00;;;;;;4940708;28;20567;-70
2023/11/13 04:52:56;;;;;;;98.80;30.13;;;5.10;100.00;;;;;;4944394;29;20047;-71
2023/11/13 04:55:23;;;;;;;101.03;29.02;;;5.10;100.00;;;;;;4933038;28;20777;-70
2023/11/13 04:57:49;;;;;;;99.60;29.13;;;5.10;100.00;;;;;;4941861;28;20058;-71
2023/11/13 05:00:17;;;;;;;100.65;27.25;;;5.10;100.00;;;;;;4940493;28;20047;-70
2023/11/13 05:02:44;;;;;;;93.40;28.63;;;5.00;100.00;;;;;;4933417;28;20161;-70
2023/11/13 05:05:11;;;;;;;87.05;27.27;;;5.00;100.00;;;;;;4940425;29;20055;-70
2023/11/13 05:07:38;;;;;;;92.38;25.88;;;4.90;100.00;;;;;;4941873;28;20055;-70
2023/11/13 05:10:06;;;;;;;94.07;28.20;;;4.90;100.00;;;;;;4939380;28;20055;-70
2023/11/13 05:12:33;;;;;;;83.45;25.38;;;4.80;100.00;;;;;;4938103;29;20811;-70
2023/11/13 05:15:00;;;;;;;87.57;26.55;;;4.70;100.00;;;;;;4929891;29;20098;-70
2023/11/13 05:17:27;;;;;;;90.50;27.13;;;4.70;100.00;;;;;;4943544;28;20055;-70
2023/11/13 05:19:54;;;;;;;88.35;25.33;;;4.60;100.00;;;;;;4947212;28;20055;-70
2023/11/13 05:22:21;;;;;;;82.57;26.33;;;4.50;100.00;;;;;;4939131;28;20141;-70
2023/11/13 05:24:48;;;;;;;80.10;25.95;;;4.50;100.00;;;;;;4942313;28;20055;-70
2023/11/13 05:27:16;;;;;;;86.85;25.88;;;4.50;100.00;;;;;;4937457;28;20059;-70
2023/11/13 05:29:43;;;;;;;90.90;25.83;;;4.40;100.00;;;;;;4931827;28;20167;-70
2023/11/13 05:32:10;;;;;;;82.78;24.80;;;4.40;100.00;;;;;;4938398;28;20075;-70
2023/11/13 05:34:37;;;;;;;90.97;25.38;;;4.40;100.00;;;;;;4935960;28;20066;-70
2023/11/13 05:37:04;;;;;;;87.72;26.38;;;4.40;100.00;;;;;;4936039;29;20098;-70
2023/11/13 05:39:31;;;;;;;101.47;27.05;;;4.40;100.00;;;;;;4938025;29;20079;-70
2023/11/13 05:41:58;;;;;;;96.13;26.33;;;4.40;100.00;;;;;;4941245;28;20047;-70
2023/11/13 05:44:25;;;;;;;86.22;27.00;;;4.40;100.00;;;;;;4943280;28;20130;-70
2023/11/13 05:46:53;;;;;;;94.95;27.10;;;4.40;100.00;;;;;;4933126;29;20052;-70
2023/11/13 05:49:20;;;;;;;96.18;28.33;;;4.40;100.00;;;;;;4931979;29;20066;-71
2023/11/13 05:51:47;;;;;;;92.35;28.80;;;4.40;100.00;;;;;;4939884;28;20092;-71
2023/11/13 05:54:14;;;;;;;90.47;27.58;;;4.40;100.00;;;;;;4942003;29;20059;-71
2023/11/13 05:56:41;;;;;;;106.03;28.08;;;4.40;100.00;;;;;;4948961;23;20121;-71
2023/11/13 05:59:09;;;;;;;103.60;27.70;;;4.40;100.00;;;;;;4937096;28;20115;-71
2023/11/13 06:01:36;;;;;;;100.40;29.27;;;4.40;100.00;;;;;;4937100;28;20488;-72
2023/11/13 06:04:03;;;;;;;87.88;27.20;;;4.30;100.00;;;;;;4942506;28;20055;-73
2023/11/13 06:06:30;;;;;;;82.70;27.20;;;4.30;100.00;;;;;;4939982;29;20062;-71
2023/11/13 06:08:57;;;;;;;97.05;27.38;;;4.30;100.00;;;;;;4940161;29;20051;-71
2023/11/13 06:11:24;;;;;;;101.22;27.05;;;4.30;100.00;;;;;;4931748;28;20107;-70
2023/11/13 06:13:51;;;;;;;97.25;27.58;;;4.20;100.00;;;;;;4911316;29;20481;-70
2023/11/13 06:16:20;;;;;;;93.68;27.08;;;4.30;100.00;;;;;;4917263;29;20421;-71
2023/11/13 06:18:50;;;;;;;95.82;27.33;;;4.20;100.00;;;;;;4935730;28;20126;-70
2023/11/13 06:21:19;;;;;;;96.22;28.25;;;4.20;100.00;;;;;;4932803;29;20052;-70
2023/11/13 06:23:46;;;;;;;95.88;27.35;;;4.20;100.00;;;;;;4938254;28;20055;-71
2023/11/13 06:26:13;;;;;;;88.38;25.55;;;4.20;100.00;;;;;;4928589;29;20536;-71
2023/11/13 06:28:40;;;;;;;86.60;25.88;;;4.20;100.00;;;;;;4940037;28;20110;-72
2023/11/13 06:31:08;;;;;;;90.60;25.88;;;4.10;100.00;;;;;;4921005;29;20051;-71
2023/11/13 06:33:36;;;;;;;86.05;26.40;;;4.00;100.00;;;;;;4918776;29;20059;-70
2023/11/13 06:36:09;;;;;;;91.88;24.58;;;4.00;100.00;;;;;;4938030;29;20166;-71
2023/11/13 06:38:37;;;;;;;96.85;26.15;;;4.00;100.00;;;;;;4916838;28;20082;-69
2023/11/13 06:41:05;;;;;;;92.88;25.30;;;3.90;100.00;;;;;;4940916;28;20131;-71
2023/11/13 06:43:32;;;;;;;91.80;26.65;;;3.90;100.00;;;;;;4931273;29;20134;-70
2023/11/13 06:46:00;;;;;;;84.43;25.38;;;4.00;100.00;;;;;;4936569;28;20187;-71
2023/11/13 06:48:27;;;;;;;86.65;26.42;;;3.90;100.00;;;;;;4915828;29;20115;-71
2023/11/13 06:50:54;;;;;;;84.50;26.85;;;3.90;100.00;;;;;;4910128;29;20047;-71
2023/11/13 06:53:21;;;;;;;89.32;26.95;;;3.80;100.00;;;;;;4937289;29;20056;-70
2023/11/13 06:55:48;;;;;;;86.30;24.75;;;3.80;100.00;;;;;;4937127;28;20485;-71
2023/11/13 06:58:15;;;;;;;78.65;25.45;;;3.80;100.00;;;;;;4916557;29;20074;-71
2023/11/13 07:00:43;;;;;;;89.03;24.92;;;3.80;100.00;;;;;;4915394;29;20043;-71
2023/11/13 07:03:10;;;;;;;90.85;25.77;;;3.70;100.00;;;;;;4917332;29;20110;-71
2023/11/13 07:05:37;;;;;;;80.82;25.55;;;3.70;100.00;;;;;;4938322;28;20055;-71
2023/11/13 07:08:05;;;;;;;86.97;26.02;;;3.70;100.00;;;;;;4921300;29;20074;-71
2023/11/13 07:10:35;;;;;;;77.07;26.15;;;3.70;100.00;;;;;;4922255;29;20238;-71
2023/11/13 07:13:02;;;;;;;88.82;26.35;;;3.70;100.00;;;;;;4940152;29;20055;-71
2023/11/13 07:15:29;;;;;;;75.18;25.42;;;3.70;100.00;;;;;;4940416;28;20079;-71
2023/11/13 07:17:57;;;;;;;89.07;26.70;;;3.70;100.00;;;;;;4943227;28;20460;-70
2023/11/13 07:20:24;;;;;;;84.65;25.67;;;3.70;100.00;;;;;;4935443;29;20052;-70
2023/11/13 07:22:52;;;;;;;75.35;25.33;;;3.70;100.00;;;;;;4936348;29;20048;-71
2023/11/13 07:25:20;;;;;;;78.03;27.23;;;3.80;100.00;;;;;;4938098;28;20210;-70
2023/11/13 07:27:47;;;;;;;74.72;24.30;;;3.80;100.00;;;;;;4935060;28;20059;-75
2023/11/13 07:30:14;;;;;;;89.53;25.92;;;3.90;100.00;;;;;;4935340;29;20063;-76
2023/11/13 07:32:41;;;;;;;90.25;26.35;;;3.90;100.00;;;;;;4939359;28;20055;-76
2023/11/13 07:35:09;;;;;;;79.05;24.63;;;3.90;100.00;;;;;;4944837;28;20055;-75
2023/11/13 07:37:37;;;;;;;69.47;24.20;;;3.90;100.00;;;;;;4940095;29;20062;-76
2023/11/13 07:40:10;;;;;;;86.63;24.35;;;4.00;100.00;;;;;;4921332;29;20063;-76
2023/11/13 07:42:37;;;;;;;77.88;25.92;;;4.00;100.00;;;;;;4937070;28;20392;-76
2023/11/13 07:45:05;;;;;;;98.43;26.95;;;4.00;100.00;;;;;;4916911;29;20052;-76
2023/11/13 07:47:32;;;;;;;90.20;25.35;;;4.10;100.00;;;;;;4939980;28;20727;-75
2023/11/13 07:49:59;;;;;;;70.72;26.27;;;4.10;100.00;;;;;;4911787;29;20386;-75
2023/11/13 07:52:30;;;;;;;83.40;26.55;;;4.10;100.00;;;;;;4921491;29;20134;-75
2023/11/13 07:54:59;;;;;;;77.32;27.05;;;4.20;100.00;;;;;;4937389;28;20641;-76
2023/11/13 07:57:26;;;;;;;74.60;22.95;;;4.20;100.00;;;;;;4926576;29;20051;-75
2023/11/13 07:59:53;;;;;;;73.60;24.38;;;4.30;100.00;;;;;;4943046;29;20047;-75
2023/11/13 08:02:21;;;;;;;68.43;24.20;;;4.30;100.00;;;;;;4941405;28;20059;-76
2023/11/13 08:04:49;;;;;;;71.38;23.92;;;4.30;100.00;;;;;;4942131;28;20389;-76
2023/11/13 08:07:16;;;;;;;75.43;24.00;;;4.40;100.00;;;;;;4917996;29;20073;-76
2023/11/13 08:09:51;;;;;;;71.22;24.33;;;4.40;100.00;;;;;;4933368;29;20098;-75
2023/11/13 08:12:18;;;;;;;73.45;23.08;;;4.40;100.00;;;;;;4932796;29;20055;-75
2023/11/13 08:14:48;;;;;;;65.13;22.40;;;4.40;100.00;;;;;;4934640;28;20059;-76
2023/11/13 08:17:15;;;;;;;72.45;23.10;;;4.40;100.00;;;;;;4940099;29;20592;-76
2023/11/13 08:19:42;;;;;;;65.03;23.02;;;4.40;100.00;;;;;;4927630;29;20130;-76
2023/11/13 08:22:09;;;;;;;67.03;22.42;;;4.40;100.00;;;;;;4938722;28;20055;-76
2023/11/13 08:24:37;;;;;;;68.93;21.42;;;4.40;100.00;;;;;;4936702;28;20122;-75
2023/11/13 08:27:04;;;;;;;58.15;20.38;;;4.30;100.00;;;;;;4928607;29;20134;-76
2023/11/13 08:29:32;;;;;;;61.28;21.85;;;4.30;100.00;;;;;;4940016;28;20047;-75
2023/11/13 08:32:00;;;;;;;56.17;21.92;;;4.30;100.00;;;;;;4937162;29;20492;-70
2023/11/13 08:34:27;;;;;;;60.83;21.77;;;4.20;100.00;;;;;;4933158;29;20154;-70
2023/11/13 08:36:54;;;;;;;62.72;20.33;;;4.20;100.00;;;;;;4930005;28;20568;-70
2023/11/13 08:39:22;;;;;;;69.45;22.23;;;4.20;100.00;;;;;;4918604;29;20063;-70
2023/11/13 08:41:49;;;;;;;66.15;20.60;;;4.20;100.00;;;;;;4923564;28;20039;-70
2023/11/13 08:44:17;;;;;;;61.85;21.23;;;4.30;100.00;;;;;;4936451;28;20392;-70
2023/11/13 08:46:44;;;;;;;58.63;20.45;;;4.40;100.00;;;;;;4936091;28;20061;-70
2023/11/13 08:49:14;;;;;;;63.63;19.83;;;4.50;100.00;;;;;;4932083;29;20047;-70
2023/11/13 08:51:41;;;;;;;60.50;20.02;;;4.60;100.00;;;;;;4916180;29;20047;-70
2023/11/13 08:54:09;;;;;;;58.85;20.27;;;4.70;100.00;;;;;;4922043;29;20062;-70
2023/11/13 08:56:36;;;;;;;51.60;18.60;;;4.70;100.00;;;;;;4935990;28;20055;-70
2023/11/13 08:59:03;;;;;;;76.15;20.52;;;4.80;100.00;;;;;;4912104;29;20055;-72
2023/11/13 09:01:30;;;;;;;66.10;20.63;;;4.90;100.00;;;;;;4925042;29;20051;-69
2023/11/13 09:04:00;;;;;;;66.93;21.85;;;4.90;100.00;;;;;;4939617;28;20055;-70
2023/11/13 09:06:31;;;;;;;57.17;20.90;;;4.90;100.00;;;;;;4917219;28;20760;-70
2023/11/13 09:08:59;;;;;;;55.95;19.30;;;4.90;100.00;;;;;;4914539;29;20051;-70
2023/11/13 09:11:28;;;;;;;57.28;19.42;;;4.90;100.00;;;;;;4931225;28;20460;-70
2023/11/13 09:13:55;;;;;;;51.25;18.58;;;5.00;100.00;;;;;;4939210;28;20148;-69
2023/11/13 09:16:22;;;;;;;52.10;19.30;;;5.00;100.00;;;;;;4938035;28;20055;-69
2023/11/13 09:18:50;;;;;;;48.25;17.65;;;5.00;100.00;;;;;;4943530;28;20081;-69
2023/11/13 09:21:17;;;;;;;55.22;20.75;;;5.10;100.00;;;;;;4929179;29;20052;-71
2023/11/13 09:23:48;;;;;;;47.35;17.58;;;5.10;100.00;;;;;;4915676;28;20137;-71
2023/11/13 09:26:15;;;;;;;55.88;18.70;;;5.10;100.00;;;;;;4915146;29;20819;-69
2023/11/13 09:28:42;;;;;;;49.47;18.13;;;5.10;100.00;;;;;;4941568;28;20059;-69
2023/11/13 09:31:10;;;;;;;44.42;17.45;;;5.10;100.00;;;;;;4920750;29;20051;-68
2023/11/13 09:33:39;;;;;;;48.90;17.20;;;5.20;100.00;;;;;;4932484;28;20409;-70
2023/11/13 09:36:08;;;;;;;56.17;18.70;;;5.20;100.00;;;;;;4939264;28;20047;-69
2023/11/13 09:38:35;;;;;;;55.53;17.17;;;5.20;100.00;;;;;;4940123;29;20077;-69
2023/11/13 09:41:03;;;;;;;44.20;16.58;;;5.20;100.00;;;;;;4943950;29;20056;-69
2023/11/13 09:43:35;;;;;;;49.30;17.80;;;5.30;100.00;;;;;;4928364;29;20579;-69
2023/11/13 09:46:06;;;;;;;49.38;17.38;;;5.30;100.00;;;;;;4942077;29;20083;-69
2023/11/13 09:48:45;;;;;;;49.85;18.25;;;5.40;100.00;;;;;;4921501;29;20166;-69
2023/11/13 09:51:14;;;;;;;48.70;17.10;;;5.40;100.00;;;;;;4919931;29;20222;-69
2023/11/13 09:53:57;;;;;;;54.42;19.65;;;5.50;100.00;;;;;;4942410;28;20665;-69
2023/11/13 09:56:27;;;;;;;53.40;19.17;;;5.50;100.00;;;;;;4916991;29;20540;-69
2023/11/13 09:58:57;;;;;;;47.03;18.75;;;5.60;100.00;;;;;;4943149;29;20195;-69
2023/11/13 10:01:24;;;;;;;61.90;18.98;;;5.70;100.00;;;;;;4939646;29;20116;-69
2023/11/13 10:03:52;;;;;;;53.05;18.60;;;5.80;100.00;;;;;;4938365;28;20044;-69
2023/11/13 10:06:21;;;;;;;57.00;19.80;;;5.80;100.00;;;;;;4940424;28;20157;-69
2023/11/13 10:08:49;;;;;;;51.63;18.70;;;5.90;100.00;;;;;;4933351;29;20071;-71
2023/11/13 10:11:18;;;;;;;47.85;18.30;;;6.00;100.00;;;;;;4942442;28;20059;-68
2023/11/13 10:13:45;;;;;;;47.88;18.58;;;6.00;100.00;;;;;;4924384;29;20059;-69
2023/11/13 10:16:21;;;;;;;45.20;16.52;;;6.10;100.00;;;;;;4938525;29;20067;-69
2023/11/13 10:18:49;;;;;;;49.80;18.40;;;6.30;100.00;;;;;;4933214;29;20098;-69
2023/11/13 10:21:35;;;;;;;50.10;16.98;;;6.50;100.00;;;;;;4937233;29;20106;-69
2023/11/13 10:24:15;;;;;;;;;;;6.60;100.00;;;;;;4926221;29;20118;-69
2023/11/13 10:26:54;;;;;;;40.58;16.67;;;6.60;100.00;;;;;;4923356;29;19931;-69
2023/11/13 10:29:30;;;;;;;58.40;15.40;;;6.80;100.00;;;;;;4938342;29;20658;-69
2023/11/13 10:31:58;;;;;;;38.58;16.45;;;7.10;100.00;;;;;;4935690;28;20055;-69
2023/11/13 10:34:39;;;;;;;38.45;16.63;;;7.90;100.00;;;;;;4919476;29;20064;-69
2023/11/13 10:37:11;;;;;;;50.65;16.67;;;8.80;100.00;;;;;;4939150;29;20047;-69
2023/11/13 10:39:46;;;;;;;36.58;14.60;;;9.20;100.00;;;;;;4932693;29;20062;-69
2023/11/13 10:42:23;;;;;;;35.95;15.52;;;9.20;100.00;;;;;;4938669;28;20219;-69
2023/11/13 10:44:54;;;;;;;39.55;15.45;;;9.10;100.00;;;;;;4925926;28;20051;-69
2023/11/13 10:47:32;;;;;;;40.35;14.75;;;9.20;100.00;;;;;;4936007;29;20484;-69
2023/11/13 10:50:00;;;;;;;36.20;13.02;;;9.00;100.00;;;;;;4936639;29;20048;-69
2023/11/13 10:52:29;;;;;;;27.65;11.52;;;8.70;100.00;;;;;;4939368;28;20051;-69
2023/11/13 10:55:02;;;;;;;23.05;11.05;;;8.60;100.00;;;;;;4938888;28;20320;-69
2023/11/13 10:57:29;;;;;;;26.17;11.55;;;8.70;100.00;;;;;;4915842;29;20141;-69
2023/11/13 10:59:56;;;;;;;23.73;10.68;;;9.10;100.00;;;;;;4935426;29;20050;-69
2023/11/13 11:02:36;;;;;;;24.73;10.07;;;9.10;100.00;;;;;;4944612;28;20048;-69
2023/11/13 11:05:10;;;;;;;27.05;9.10;;;9.00;100.00;;;;;;4941030;28;20110;-70
2023/11/13 11:07:38;;;;;;;18.55;9.20;;;8.90;100.00;;;;;;4935487;29;20134;-70
2023/11/13 11:10:07;;;;;;;18.25;8.52;;;9.50;100.00;;;;;;4932821;29;20058;-70
2023/11/13 11:12:43;;;;;;;18.50;8.55;;;9.90;100.00;;;;;;4943297;29;20101;-70
2023/11/13 11:15:28;;;;;;;21.95;7.82;;;9.90;100.00;;;;;;4930867;29;20086;-70
2023/11/13 11:18:09;;;;;;;18.52;7.57;;;10.50;100.00;;;;;;4925018;29;20047;-70
2023/11/13 11:20:51;;;;;;;16.27;6.88;;;11.00;100.00;;;;;;4944225;29;20503;-70
2023/11/13 11:23:22;;;;;;;12.80;5.63;;;11.20;100.00;;;;;;4927210;29;20142;-71
2023/11/13 11:25:51;;;;;;;11.18;5.68;;;11.10;100.00;;;;;;4929168;28;20052;-70
2023/11/13 11:28:40;;;;;;;12.55;4.75;;;10.80;100.00;;;;;;4935424;28;20167;-70
2023/11/13 11:31:33;;;;;;;14.80;4.85;;;9.90;100.00;;;;;;4944876;28;20814;-70
2023/11/13 11:34:00;;;;;;;13.45;4.35;;;9.50;100.00;;;;;;4929962;29;20606;-70
2023/11/13 11:36:33;;;;;;;12.73;4.60;;;9.30;100.00;;;;;;4914062;29;20058;-70
2023/11/13 11:39:21;;;;;;;8.45;4.30;;;9.20;100.00;;;;;;4934832;28;20044;-70
2023/11/13 11:41:53;;;;;;;14.60;4.32;;;9.10;100.00;;;;;;4942769;28;20061;-70
2023/11/13 11:44:22;;;;;;;11.07;4.50;;;9.50;100.00;;;;;;4944464;28;20071;-70
2023/11/13 11:46:51;;;;;;;8.63;4.07;;;9.30;100.00;;;;;;4941965;28;20062;-70
2023/11/13 11:49:31;;;;;;;10.30;4.72;;;9.00;100.00;;;;;;4919778;29;20084;-70
2023/11/13 11:52:00;;;;;;;6.55;3.65;;;8.90;100.00;;;;;;4939599;29;20564;-70
2023/11/13 11:54:29;;;;;;;7.68;3.90;;;8.60;100.00;;;;;;4921716;29;20110;-70
2023/11/13 11:57:02;;;;;;;8.20;3.72;;;8.40;100.00;;;;;;4915239;29;20130;-70
2023/11/13 11:59:30;;;;;;;14.52;3.17;;;8.50;100.00;;;;;;4929328;29;20051;-70
2023/11/13 12:02:04;;;;;;;5.97;2.97;;;8.40;100.00;;;;;;4919625;29;20052;-70
2023/11/13 12:04:35;;;;;;;6.47;3.08;;;8.50;100.00;;;;;;4940738;28;20620;-70
2023/11/13 12:07:09;;;;;;;4.43;2.70;;;8.50;100.00;;;;;;4943352;28;20063;-70
2023/11/13 12:09:36;;;;;;;8.18;3.35;;;8.30;100.00;;;;;;4946529;28;20052;-70
2023/11/13 12:12:04;;;;;;;16.95;3.05;;;8.30;100.00;;;;;;4931950;29;20166;-70
2023/11/13 12:14:31;;;;;;;5.45;2.80;;;8.30;100.00;;;;;;4919850;29;20089;-70
2023/11/13 12:16:58;;;;;;;12.80;2.92;;;8.30;100.00;;;;;;4916682;29;20126;-70
2023/11/13 12:19:25;;;;;;;10.27;2.53;;;8.30;100.00;;;;;;4918770;29;20051;-70
2023/11/13 12:21:52;;;;;;;17.48;3.30;;;8.40;100.00;;;;;;4935946;29;20051;-70
2023/11/13 12:24:19;;;;;;;6.25;3.00;;;8.50;100.00;;;;;;4937094;29;20111;-68
2023/11/13 12:26:46;;;;;;;8.45;3.20;;;8.60;100.00;;;;;;4930898;28;20055;-70
2023/11/13 12:29:17;;;;;;;18.52;3.58;;;8.60;100.00;;;;;;4936206;28;20118;-70
2023/11/13 12:31:52;;;;;;;15.32;3.28;;;8.70;100.00;;;;;;4918528;29;20737;-68
2023/11/13 12:34:20;;;;;;;11.82;2.92;;;8.80;100.00;;;;;;4926402;29;20071;-73